createdAt,value
2022-09-27T00:01:08.843Z,7.55
2022-09-27T00:03:41.647Z,8.05
2022-09-27T00:06:16.308Z,7.50
2022-09-27T00:08:45.107Z,7.68
2022-09-27T00:11:18.982Z,7.80
2022-09-27T00:13:47.186Z,8.32
2022-09-27T00:16:15.755Z,8.38
2022-09-27T00:18:44.107Z,9.55
2022-09-27T00:21:15.493Z,8.10
2022-09-27T00:23:47.040Z,8.65
2022-09-27T00:26:15.460Z,7.00
2022-09-27T00:28:43.966Z,7.57
2022-09-27T00:31:21.206Z,7.65
2022-09-27T00:33:50.465Z,6.93
2022-09-27T00:36:22.612Z,7.15
2022-09-27T00:38:51.143Z,7.13
2022-09-27T00:41:22.240Z,6.97
2022-09-27T00:43:52.703Z,8.10
2022-09-27T00:46:28.158Z,7.78
2022-09-27T00:49:06.904Z,8.43
2022-09-27T00:51:40.484Z,9.40
2022-09-27T00:54:13.223Z,7.53
2022-09-27T00:56:43.220Z,8.02
2022-09-27T00:59:18.365Z,8.60
2022-09-27T01:01:47.385Z,8.05
2022-09-27T01:04:19.049Z,6.70
2022-09-27T01:06:49.075Z,7.47
2022-09-27T01:09:17.763Z,7.68
2022-09-27T01:11:51.599Z,7.60
2022-09-27T01:14:42.666Z,8.18
2022-09-27T01:17:22.406Z,8.90
2022-09-27T01:20:31.459Z,8.77
2022-09-27T01:23:19.823Z,9.40
2022-09-27T01:25:59.014Z,9.18
2022-09-27T01:28:42.601Z,9.93
2022-09-27T01:31:19.228Z,7.47
2022-09-27T01:33:55.078Z,7.90
2022-09-27T01:36:32.139Z,7.47
2022-09-27T01:39:14.179Z,7.88
2022-09-27T01:41:52.860Z,7.63
2022-09-27T01:44:29.048Z,8.07
2022-09-27T01:47:04.880Z,6.88
2022-09-27T01:49:40.591Z,8.90
2022-09-27T01:52:14.330Z,6.88
2022-09-27T01:54:46.680Z,7.80
2022-09-27T01:57:20.928Z,7.85
2022-09-27T01:59:54.686Z,8.13
2022-09-27T02:02:31.298Z,7.20
2022-09-27T02:05:03.396Z,7.63
2022-09-27T02:07:39.062Z,9.00
2022-09-27T02:10:12.438Z,8.50
2022-09-27T02:12:51.627Z,9.32
2022-09-27T02:15:20.660Z,8.52
2022-09-27T02:17:56.434Z,8.30
2022-09-27T02:20:31.694Z,8.20
2022-09-27T02:23:12.042Z,8.85
2022-09-27T02:25:45.786Z,8.20
2022-09-27T02:28:26.121Z,8.80
2022-09-27T02:31:31.826Z,8.95
2022-09-27T02:34:05.259Z,8.13
2022-09-27T02:36:33.645Z,8.73
2022-09-27T02:39:02.366Z,6.67
2022-09-27T02:41:30.611Z,7.57
2022-09-27T02:44:04.132Z,6.97
2022-09-27T02:47:01.168Z,8.48
2022-09-27T02:49:48.548Z,8.80
2022-09-27T02:52:29.589Z,8.70
2022-09-27T02:55:08.295Z,7.40
2022-09-27T02:57:46.874Z,6.53
2022-09-27T03:00:18.744Z,8.05
2022-09-27T03:02:56.863Z,7.55
2022-09-27T03:05:30.347Z,7.97
2022-09-27T03:07:59.159Z,8.00
2022-09-27T03:10:29.383Z,8.88
2022-09-27T03:12:58.798Z,8.88
2022-09-27T03:15:27.318Z,8.98
2022-09-27T03:17:55.572Z,7.90
2022-09-27T03:20:23.882Z,7.97
2022-09-27T03:22:53.716Z,10.13
2022-09-27T03:25:21.912Z,8.18
2022-09-27T03:27:50.085Z,8.98
2022-09-27T03:30:18.692Z,8.32
2022-09-27T03:32:47.339Z,8.38
2022-09-27T03:35:15.946Z,8.48
2022-09-27T03:37:44.995Z,9.57
2022-09-27T03:40:14.731Z,8.60
2022-09-27T03:42:47.491Z,8.77
2022-09-27T03:45:18.358Z,9.13
2022-09-27T03:47:46.629Z,8.43
2022-09-27T03:50:16.044Z,8.60
2022-09-27T03:52:45.061Z,8.27
2022-09-27T03:55:15.157Z,9.30
2022-09-27T03:57:46.276Z,8.02
2022-09-27T04:00:17.399Z,8.57
2022-09-27T04:05:13.993Z,7.32
2022-09-27T04:07:47.796Z,8.25
2022-09-27T04:10:17.483Z,8.25
2022-09-27T04:12:45.996Z,10.82
2022-09-27T04:15:14.395Z,11.32
2022-09-27T04:17:42.921Z,12.13
2022-09-27T04:20:12.118Z,12.30
2022-09-27T04:22:44.085Z,11.60
2022-09-27T04:25:13.172Z,11.82
2022-09-27T04:27:46.655Z,11.00
2022-09-27T04:30:15.767Z,10.18
2022-09-27T04:32:44.791Z,10.07
2022-09-27T04:35:31.493Z,9.55
2022-09-27T04:38:00.204Z,9.88
2022-09-27T04:40:28.519Z,10.55
2022-09-27T04:42:58.218Z,10.32
2022-09-27T04:45:26.896Z,9.95
2022-09-27T04:47:55.282Z,10.30
2022-09-27T04:50:23.639Z,8.38
2022-09-27T04:52:53.655Z,9.93
2022-09-27T04:55:22.767Z,9.55
2022-09-27T04:57:51.510Z,8.82
2022-09-27T05:00:21.567Z,10.07
2022-09-27T05:02:49.924Z,9.32
2022-09-27T05:05:18.365Z,8.85
2022-09-27T05:07:47.025Z,8.55
2022-09-27T05:10:15.261Z,9.80
2022-09-27T05:12:43.403Z,11.57
2022-09-27T05:15:12.520Z,12.05
2022-09-27T05:17:42.406Z,14.07
2022-09-27T05:20:11.496Z,11.57
2022-09-27T05:22:41.653Z,11.68
2022-09-27T05:25:10.659Z,10.32
2022-09-27T05:27:38.972Z,12.50
2022-09-27T05:30:09.269Z,12.45
2022-09-27T05:32:37.843Z,11.45
2022-09-27T05:35:08.329Z,10.73
2022-09-27T05:37:40.819Z,10.80
2022-09-27T05:40:29.203Z,11.25
2022-09-27T05:45:27.232Z,12.95
2022-09-27T05:47:57.299Z,14.27
2022-09-27T05:50:28.192Z,14.73
2022-09-27T05:52:56.870Z,15.57
2022-09-27T05:55:25.391Z,17.50
2022-09-27T05:57:58.822Z,14.00
2022-09-27T06:00:28.062Z,15.98
2022-09-27T06:05:28.981Z,12.93
2022-09-27T06:08:01.350Z,16.20
2022-09-27T06:10:31.194Z,11.98
2022-09-27T06:13:03.614Z,12.80
2022-09-27T06:15:32.974Z,11.25
2022-09-27T06:20:34.831Z,12.07
2022-09-27T06:23:09.270Z,12.30
2022-09-27T06:25:51.595Z,12.55
2022-09-27T06:28:20.812Z,13.48
2022-09-27T06:30:51.131Z,12.02
2022-09-27T06:33:21.636Z,12.02
2022-09-27T06:35:51.809Z,14.60
2022-09-27T06:38:21.359Z,15.02
2022-09-27T06:40:50.177Z,15.23
2022-09-27T06:43:21.137Z,16.65
2022-09-27T06:45:50.602Z,17.10
2022-09-27T06:50:49.232Z,17.88
2022-09-27T06:53:19.360Z,18.23
2022-09-27T06:55:48.170Z,19.38
2022-09-27T06:58:36.012Z,19.33
2022-09-27T07:01:04.999Z,20.33
2022-09-27T07:03:40.773Z,20.00
2022-09-27T07:06:17.583Z,20.20
2022-09-27T07:08:51.843Z,21.67
2022-09-27T07:11:22.207Z,18.65
2022-09-27T07:13:52.141Z,21.58
2022-09-27T07:16:21.138Z,17.70
2022-09-27T07:18:51.341Z,19.83
2022-09-27T07:21:19.986Z,21.92
2022-09-27T07:23:50.696Z,21.42
2022-09-27T07:26:19.266Z,22.45
2022-09-27T07:28:47.678Z,26.37
2022-09-27T07:31:17.293Z,27.63
2022-09-27T07:33:45.577Z,25.65
2022-09-27T07:36:15.166Z,24.58
2022-09-27T07:38:44.131Z,25.42
2022-09-27T07:41:15.367Z,27.20
2022-09-27T07:43:44.176Z,26.42
2022-09-27T07:46:13.703Z,25.45
2022-09-27T07:51:11.991Z,24.73
2022-09-27T07:53:44.212Z,25.63
2022-09-27T07:56:13.872Z,26.42
2022-09-27T07:58:43.195Z,25.38
2022-09-27T08:01:11.463Z,25.50
2022-09-27T08:03:40.955Z,25.23
2022-09-27T08:06:09.433Z,25.35
2022-09-27T08:08:38.064Z,25.52
2022-09-27T08:11:15.425Z,25.40
2022-09-27T08:13:43.647Z,25.30
2022-09-27T08:16:12.417Z,27.40
2022-09-27T08:18:40.806Z,25.87
2022-09-27T08:21:09.072Z,27.05
2022-09-27T08:23:38.360Z,24.27
2022-09-27T08:26:07.519Z,26.48
2022-09-27T08:28:37.079Z,26.48
2022-09-27T08:31:06.129Z,26.25
2022-09-27T08:33:39.070Z,26.23
2022-09-27T08:36:13.197Z,26.70
2022-09-27T08:38:41.427Z,26.15
2022-09-27T08:41:13.771Z,25.98
2022-09-27T08:43:50.772Z,24.88
2022-09-27T08:46:28.769Z,24.98
2022-09-27T08:49:07.016Z,24.55
2022-09-27T08:51:36.788Z,24.67
2022-09-27T08:54:09.446Z,23.58
2022-09-27T08:56:47.631Z,22.25
2022-09-27T08:59:29.930Z,20.92
2022-09-27T09:01:58.997Z,20.65
2022-09-27T09:04:37.292Z,18.40
2022-09-27T09:07:17.402Z,19.52
2022-09-27T09:09:54.325Z,18.52
2022-09-27T09:12:50.307Z,17.83
2022-09-27T09:15:33.324Z,19.02
2022-09-27T09:18:24.297Z,17.35
2022-09-27T09:20:59.927Z,17.92
2022-09-27T09:23:59.624Z,18.25
2022-09-27T09:26:36.285Z,17.85
2022-09-27T09:29:15.704Z,17.25
2022-09-27T09:31:52.513Z,18.02
2022-09-27T09:34:25.360Z,16.15
2022-09-27T09:36:58.008Z,17.65
2022-09-27T09:39:30.194Z,16.13
2022-09-27T09:42:08.225Z,16.75
2022-09-27T09:44:45.334Z,16.13
2022-09-27T09:47:29.623Z,15.95
2022-09-27T09:50:01.872Z,15.98
2022-09-27T09:52:43.327Z,16.80
2022-09-27T09:55:21.554Z,17.63
2022-09-27T09:58:08.407Z,17.48
2022-09-27T10:00:37.104Z,16.80
2022-09-27T10:03:07.390Z,14.70
2022-09-27T10:05:36.302Z,14.85
2022-09-27T10:08:14.175Z,14.63
2022-09-27T10:10:42.719Z,13.60
2022-09-27T10:13:16.747Z,14.32
2022-09-27T10:15:55.243Z,13.52
2022-09-27T10:18:26.591Z,12.95
2022-09-27T10:21:00.223Z,13.32
2022-09-27T10:23:29.274Z,13.25
2022-09-27T10:26:01.638Z,13.40
2022-09-27T10:28:37.531Z,13.40
2022-09-27T10:31:08.818Z,12.57
2022-09-27T10:33:40.758Z,12.05
2022-09-27T10:36:25.666Z,11.10
2022-09-27T10:38:55.627Z,11.98
2022-09-27T10:41:28.480Z,11.98
2022-09-27T10:43:56.929Z,11.80
2022-09-27T10:46:29.965Z,10.95
2022-09-27T10:49:20.470Z,11.93
2022-09-27T10:51:53.715Z,11.20
2022-09-27T10:54:24.818Z,10.77
2022-09-27T10:56:59.245Z,11.90
2022-09-27T10:59:31.695Z,10.75
2022-09-27T11:02:00.608Z,11.02
2022-09-27T11:04:34.125Z,11.38
2022-09-27T11:07:15.711Z,12.18
2022-09-27T11:09:50.336Z,12.23
2022-09-27T11:12:22.169Z,10.75
2022-09-27T11:14:57.117Z,9.98
2022-09-27T11:17:35.975Z,10.38
2022-09-27T11:20:20.322Z,9.95
2022-09-27T11:23:20.215Z,10.30
2022-09-27T11:26:01.132Z,11.73
2022-09-27T11:28:42.076Z,10.73
2022-09-27T11:31:20.022Z,10.52
2022-09-27T11:34:13.069Z,10.15
2022-09-27T11:36:58.027Z,9.18
2022-09-27T11:39:35.506Z,9.07
2022-09-27T11:42:23.797Z,8.18
2022-09-27T11:45:34.276Z,8.00
2022-09-27T11:48:08.123Z,8.13
2022-09-27T11:50:53.842Z,9.23
2022-09-27T11:53:37.420Z,8.85
2022-09-27T11:56:16.037Z,9.38
2022-09-27T11:58:58.306Z,8.97
2022-09-27T12:01:36.858Z,9.65
2022-09-27T12:04:51.559Z,10.03
2022-09-27T12:07:28.611Z,10.45
2022-09-27T12:10:04.707Z,10.63
2022-09-27T12:12:38.033Z,11.68
2022-09-27T12:15:14.423Z,11.40
2022-09-27T12:17:47.165Z,11.18
2022-09-27T12:20:22.694Z,11.40
2022-09-27T12:22:59.579Z,12.30
2022-09-27T12:25:33.362Z,11.00
2022-09-27T12:28:08.633Z,11.13
2022-09-27T12:30:41.294Z,11.27
2022-09-27T12:33:19.326Z,10.88
2022-09-27T12:35:53.386Z,12.05
2022-09-27T12:38:28.890Z,11.27
2022-09-27T12:41:01.236Z,12.07
2022-09-27T12:43:32.510Z,10.77
2022-09-27T12:46:14.415Z,12.27
2022-09-27T12:48:50.041Z,13.30
2022-09-27T12:51:21.856Z,13.43
2022-09-27T12:54:09.041Z,13.60
2022-09-27T12:56:52.913Z,12.45
2022-09-27T12:59:40.692Z,13.60
2022-09-27T13:02:29.259Z,13.05
2022-09-27T13:05:11.309Z,11.82
2022-09-27T13:07:52.522Z,12.52
2022-09-27T13:10:47.626Z,13.13
2022-09-27T13:13:36.692Z,12.07
2022-09-27T13:16:06.282Z,12.63
2022-09-27T13:18:56.289Z,12.07
2022-09-27T13:22:01.451Z,11.90
2022-09-27T13:24:42.202Z,11.85
2022-09-27T13:27:41.999Z,11.00
2022-09-27T13:30:49.680Z,12.10
2022-09-27T13:33:51.470Z,12.30
2022-09-27T13:36:32.277Z,12.85
2022-09-27T13:39:07.794Z,12.23
2022-09-27T13:41:56.121Z,13.10
2022-09-27T13:44:32.599Z,11.60
2022-09-27T13:47:05.589Z,11.23
2022-09-27T13:49:39.636Z,10.70
2022-09-27T13:52:21.313Z,11.27
2022-09-27T13:54:54.732Z,11.43
2022-09-27T13:57:53.223Z,12.40
2022-09-27T14:00:24.817Z,11.43
2022-09-27T14:03:01.164Z,11.77
2022-09-27T14:05:41.623Z,11.63
2022-09-27T14:08:23.486Z,11.25
2022-09-27T14:10:57.042Z,11.00
2022-09-27T14:13:29.065Z,10.27
2022-09-27T14:16:00.211Z,11.23
2022-09-27T14:18:31.559Z,11.18
2022-09-27T14:21:16.615Z,10.77
2022-09-27T14:23:45.101Z,11.77
2022-09-27T14:26:29.412Z,11.65
2022-09-27T14:28:57.994Z,12.00
2022-09-27T14:31:27.019Z,11.93
2022-09-27T14:34:07.517Z,11.98
2022-09-27T14:36:56.674Z,12.38
2022-09-27T14:39:33.539Z,11.80
2022-09-27T14:45:22.462Z,10.90
2022-09-27T14:47:52.739Z,12.18
2022-09-27T14:50:24.605Z,11.98
2022-09-27T14:52:57.708Z,12.75
2022-09-27T14:55:29.313Z,13.02
2022-09-27T14:58:01.289Z,12.77
2022-09-27T15:00:36.667Z,13.05
2022-09-27T15:03:09.927Z,12.50
2022-09-27T15:05:43.415Z,13.23
2022-09-27T15:08:15.455Z,12.65
2022-09-27T15:10:45.863Z,13.10
2022-09-27T15:17:10.688Z,13.02
2022-09-27T15:19:39.732Z,13.48
2022-09-27T15:22:25.770Z,13.55
2022-09-27T15:25:14.959Z,12.73
2022-09-27T15:27:52.407Z,13.13
2022-09-27T15:30:29.620Z,12.73
2022-09-27T15:33:01.765Z,13.85
2022-09-27T15:35:33.688Z,13.27
2022-09-27T15:38:26.117Z,12.73
2022-09-27T15:41:13.233Z,12.98
2022-09-27T15:43:45.610Z,14.05
2022-09-27T15:46:42.857Z,13.50
2022-09-27T15:49:35.860Z,13.93
2022-09-27T15:55:50.054Z,13.73
2022-09-27T15:58:38.291Z,13.98
2022-09-27T16:07:24.039Z,14.75
2022-09-27T16:09:59.126Z,15.60
2022-09-27T16:33:39.236Z,13.38
2022-09-27T16:36:23.028Z,14.75
2022-09-27T16:38:52.532Z,14.63
2022-09-27T16:41:23.998Z,14.15
2022-09-27T16:43:52.899Z,14.55
2022-09-27T16:49:48.439Z,15.13
2022-09-27T16:52:17.437Z,15.65
2022-09-27T16:54:46.155Z,15.00
2022-09-27T16:57:15.097Z,15.75
2022-09-27T16:59:59.023Z,15.35
2022-09-27T17:02:37.034Z,14.88
2022-09-27T17:05:08.136Z,15.75
2022-09-27T17:07:37.226Z,15.68
2022-09-27T17:10:06.601Z,16.10
2022-09-27T17:16:07.101Z,16.95
2022-09-27T17:23:10.403Z,17.83
2022-09-27T17:25:39.231Z,16.17
2022-09-27T17:28:08.029Z,17.58
2022-09-27T17:30:36.525Z,17.70
2022-09-27T17:33:05.832Z,16.63
2022-09-27T17:35:34.342Z,16.87
2022-09-27T17:38:04.565Z,17.17
2022-09-27T17:40:34.669Z,16.40
2022-09-27T17:45:52.200Z,17.63
2022-09-27T17:48:37.796Z,18.63
2022-09-27T17:51:06.398Z,17.08
2022-09-27T17:53:37.012Z,18.25
2022-09-27T17:56:05.463Z,16.30
2022-09-27T17:58:34.622Z,17.20
2022-09-27T18:03:32.397Z,17.88
2022-09-27T18:06:00.860Z,17.95
2022-09-27T18:08:32.527Z,18.15
2022-09-27T18:11:07.845Z,18.75
2022-09-27T18:13:40.828Z,18.60
2022-09-27T18:16:11.326Z,19.23
2022-09-27T18:18:41.700Z,17.08
2022-09-27T18:21:14.184Z,18.27
2022-09-27T18:23:45.010Z,18.42
2022-09-27T18:26:15.107Z,18.88
2022-09-27T18:28:44.154Z,18.63
2022-09-27T18:31:15.551Z,18.33
2022-09-27T18:33:44.818Z,18.52
2022-09-27T18:36:15.635Z,17.90
2022-09-27T18:38:44.412Z,18.65
2022-09-27T18:41:15.834Z,19.08
2022-09-27T18:43:45.889Z,18.67
2022-09-27T18:46:34.967Z,17.77
2022-09-27T18:49:05.894Z,19.63
2022-09-27T18:51:37.604Z,17.83
2022-09-27T18:54:09.614Z,18.75
2022-09-27T18:56:41.248Z,20.17
2022-09-27T18:59:11.583Z,21.45
2022-09-27T19:01:44.053Z,21.08
2022-09-27T19:04:14.810Z,21.50
2022-09-27T19:06:43.171Z,21.67
2022-09-27T19:09:12.788Z,20.17
2022-09-27T19:11:42.693Z,21.73
2022-09-27T19:14:16.300Z,20.02
2022-09-27T19:16:47.257Z,21.42
2022-09-27T19:19:16.157Z,21.08
2022-09-27T19:21:44.596Z,21.33
2022-09-27T19:24:14.271Z,20.60
2022-09-27T19:29:12.893Z,20.27
2022-09-27T19:34:11.067Z,21.98
2022-09-27T19:36:39.442Z,21.20
2022-09-27T19:39:08.141Z,21.87
2022-09-27T19:41:36.662Z,21.27
2022-09-27T19:44:06.866Z,21.00
2022-09-27T19:46:35.457Z,20.63
2022-09-27T19:49:03.761Z,20.25
2022-09-27T19:51:32.661Z,20.85
2022-09-27T19:54:01.355Z,20.33
2022-09-27T19:56:29.661Z,20.52
2022-09-27T19:58:57.834Z,20.45
2022-09-27T20:01:27.865Z,21.02
2022-09-27T20:03:56.926Z,20.77
2022-09-27T20:06:25.432Z,21.38
2022-09-27T20:08:53.736Z,20.83
2022-09-27T20:11:23.979Z,20.03
2022-09-27T20:13:54.534Z,20.60
2022-09-27T20:16:24.352Z,21.13
2022-09-27T20:18:55.807Z,21.30
2022-09-27T20:21:25.998Z,20.05
2022-09-27T20:23:56.258Z,20.08
2022-09-27T20:26:26.539Z,21.02
2022-09-27T20:28:57.120Z,20.38
2022-09-27T20:31:27.445Z,21.17
2022-09-27T20:33:57.525Z,20.25
2022-09-27T20:36:27.718Z,20.33
2022-09-27T20:39:01.923Z,20.20
2022-09-27T20:41:32.881Z,20.25
2022-09-27T20:44:04.516Z,21.13
2022-09-27T20:46:33.627Z,21.13
2022-09-27T20:49:05.951Z,21.33
2022-09-27T20:51:36.136Z,20.67
2022-09-27T20:54:05.263Z,19.73
2022-09-27T20:56:35.586Z,20.55
2022-09-27T20:59:06.198Z,21.63
2022-09-27T21:01:34.741Z,20.65
2022-09-27T21:04:06.694Z,20.47
2022-09-27T21:06:37.020Z,19.73
2022-09-27T21:09:07.253Z,19.52
2022-09-27T21:11:36.412Z,21.23
2022-09-27T21:14:05.209Z,19.95
2022-09-27T21:16:36.306Z,20.60
2022-09-27T21:19:06.354Z,20.35
2022-09-27T21:21:34.542Z,15.10
2022-09-27T21:24:03.167Z,9.98
2022-09-27T21:26:33.699Z,6.22
2022-09-27T21:29:06.618Z,4.70
2022-09-27T21:31:36.392Z,3.65
2022-09-27T21:36:37.532Z,3.03
2022-09-27T21:39:08.846Z,2.50
2022-09-27T21:41:39.090Z,2.10
2022-09-27T21:44:08.160Z,1.83
2022-09-27T21:46:39.634Z,1.65
2022-09-27T21:49:09.810Z,1.58
2022-09-27T21:51:39.789Z,1.52
2022-09-27T21:54:09.324Z,1.73
2022-09-27T21:56:40.633Z,1.83
2022-09-27T21:59:12.011Z,1.70
2022-09-27T22:01:40.798Z,2.00
2022-09-27T22:04:10.736Z,1.80
2022-09-27T22:06:40.443Z,1.77
2022-09-27T22:09:12.905Z,1.50
2022-09-27T22:11:44.024Z,1.60
2022-09-27T22:14:13.324Z,1.25
2022-09-27T22:16:41.549Z,1.70
2022-09-27T22:19:12.204Z,1.67
2022-09-27T22:21:41.621Z,1.98
2022-09-27T22:24:13.789Z,1.40
2022-09-27T22:26:46.939Z,1.70
2022-09-27T22:29:15.612Z,1.95
2022-09-27T22:31:44.077Z,2.00
2022-09-27T22:34:18.755Z,1.50
2022-09-27T22:36:47.735Z,1.80
2022-09-27T22:39:16.240Z,1.90
2022-09-27T22:41:44.543Z,1.60
2022-09-27T22:44:12.999Z,2.33
2022-09-27T22:46:41.341Z,2.50
2022-09-27T22:49:09.950Z,2.40
2022-09-27T22:51:40.007Z,2.25
2022-09-27T22:54:08.241Z,2.17
2022-09-27T22:56:36.442Z,2.08
2022-09-27T22:59:04.998Z,1.88
2022-09-27T23:01:33.231Z,1.58
2022-09-27T23:04:01.701Z,1.88
2022-09-27T23:06:30.173Z,1.70
2022-09-27T23:09:01.539Z,1.42
2022-09-27T23:11:31.502Z,1.40
2022-09-27T23:13:59.860Z,1.35
2022-09-27T23:16:28.267Z,1.40
2022-09-27T23:18:58.006Z,1.40
2022-09-27T23:21:28.864Z,1.90
2022-09-27T23:23:59.888Z,1.70
2022-09-27T23:26:29.759Z,2.20
2022-09-27T23:28:59.669Z,1.80
2022-09-27T23:31:29.858Z,1.88
2022-09-27T23:34:00.170Z,2.00
2022-09-27T23:36:29.258Z,1.92
2022-09-27T23:39:01.472Z,1.92
2022-09-27T23:41:30.243Z,2.28
2022-09-27T23:43:58.853Z,2.42
2022-09-27T23:46:27.200Z,1.92
2022-09-27T23:48:59.012Z,1.75
2022-09-27T23:51:27.456Z,1.92
2022-09-27T23:53:57.180Z,1.92
2022-09-27T23:56:27.268Z,2.10
2022-09-27T23:58:55.507Z,1.85
